sensor_id;sensor_type;location;lat;lon;timestamp;pressure;altitude;pressure_sealevel;temperature;humidity
3844;BME280;1937;51.444;6.484;2023-01-28T00:02:23;66682.66;;;3.84;80.92
3844;BME280;1937;51.444;6.484;2023-01-28T00:04:51;66691.47;;;3.74;80.27
3844;BME280;1937;51.444;6.484;2023-01-28T00:07:20;66728.59;;;3.78;79.73
3844;BME280;1937;51.444;6.484;2023-01-28T00:09:48;66683.63;;;3.65;79.82
3844;BME280;1937;51.444;6.484;2023-01-28T00:12:19;66700.84;;;3.76;79.52
3844;BME280;1937;51.444;6.484;2023-01-28T00:14:48;66686.97;;;3.63;79.99
3844;BME280;1937;51.444;6.484;2023-01-28T00:17:17;66693.09;;;3.60;80.26
3844;BME280;1937;51.444;6.484;2023-01-28T00:19:46;66668.94;;;3.77;79.21
3844;BME280;1937;51.444;6.484;2023-01-28T00:22:14;66686.75;;;3.77;79.36
3844;BME280;1937;51.444;6.484;2023-01-28T00:24:42;66682.94;;;3.71;78.50
3844;BME280;1937;51.444;6.484;2023-01-28T00:27:11;66706.50;;;3.87;78.76
3844;BME280;1937;51.444;6.484;2023-01-28T00:29:39;66668.44;;;3.81;78.93
3844;BME280;1937;51.444;6.484;2023-01-28T00:32:09;66655.28;;;3.74;78.54
3844;BME280;1937;51.444;6.484;2023-01-28T00:34:37;66665.59;;;3.56;79.46
3844;BME280;1937;51.444;6.484;2023-01-28T00:37:05;66680.03;;;3.68;78.83
3844;BME280;1937;51.444;6.484;2023-01-28T00:39:33;66664.88;;;3.62;79.38
3844;BME280;1937;51.444;6.484;2023-01-28T00:42:03;66639.69;;;3.60;79.18
3844;BME280;1937;51.444;6.484;2023-01-28T00:44:32;66654.59;;;3.57;78.98
3844;BME280;1937;51.444;6.484;2023-01-28T00:47:00;66682.34;;;3.70;79.49
3844;BME280;1937;51.444;6.484;2023-01-28T00:49:30;66671.72;;;3.63;78.81
3844;BME280;1937;51.444;6.484;2023-01-28T00:51:58;66665.00;;;3.55;78.35
3844;BME280;1937;51.444;6.484;2023-01-28T00:54:27;66644.00;;;3.28;78.54
3844;BME280;1937;51.444;6.484;2023-01-28T00:56:55;66600.91;;;3.21;79.59
3844;BME280;1937;51.444;6.484;2023-01-28T00:59:24;66575.13;;;3.19;79.53
3844;BME280;1937;51.444;6.484;2023-01-28T01:01:54;66613.72;;;3.26;79.37
3844;BME280;1937;51.444;6.484;2023-01-28T01:04:39;66669.22;;;3.41;79.22
3844;BME280;1937;51.444;6.484;2023-01-28T01:07:20;66586.09;;;3.40;78.75
3844;BME280;1937;51.444;6.484;2023-01-28T01:09:48;66615.78;;;3.30;78.72
3844;BME280;1937;51.444;6.484;2023-01-28T01:12:16;66615.91;;;3.35;79.32
3844;BME280;1937;51.444;6.484;2023-01-28T01:14:46;66603.31;;;3.39;79.18
3844;BME280;1937;51.444;6.484;2023-01-28T01:17:14;66597.91;;;3.14;78.76
3844;BME280;1937;51.444;6.484;2023-01-28T01:19:44;66586.00;;;3.13;79.81
3844;BME280;1937;51.444;6.484;2023-01-28T01:22:12;66629.06;;;3.42;79.66
3844;BME280;1937;51.444;6.484;2023-01-28T01:24:41;66600.53;;;3.41;78.60
3844;BME280;1937;51.444;6.484;2023-01-28T01:27:09;66603.47;;;3.21;78.99
3844;BME280;1937;51.444;6.484;2023-01-28T01:29:37;66559.56;;;3.16;79.05
3844;BME280;1937;51.444;6.484;2023-01-28T01:32:06;66630.25;;;3.20;79.24
3844;BME280;1937;51.444;6.484;2023-01-28T01:34:34;66593.88;;;3.11;79.51
3844;BME280;1937;51.444;6.484;2023-01-28T01:37:03;66576.53;;;3.07;79.74
3844;BME280;1937;51.444;6.484;2023-01-28T01:39:35;66563.97;;;2.89;79.37
3844;BME280;1937;51.444;6.484;2023-01-28T01:42:03;66561.31;;;2.96;80.20
3844;BME280;1937;51.444;6.484;2023-01-28T01:44:53;66589.75;;;2.92;79.74
3844;BME280;1937;51.444;6.484;2023-01-28T01:47:26;66620.34;;;2.85;80.67
3844;BME280;1937;51.444;6.484;2023-01-28T01:49:57;66587.22;;;2.80;80.37
3844;BME280;1937;51.444;6.484;2023-01-28T01:52:33;66530.63;;;2.86;80.71
3844;BME280;1937;51.444;6.484;2023-01-28T01:55:07;66567.56;;;2.97;80.26
3844;BME280;1937;51.444;6.484;2023-01-28T01:57:36;66565.81;;;2.95;80.62
3844;BME280;1937;51.444;6.484;2023-01-28T02:00:07;66537.53;;;2.93;79.81
3844;BME280;1937;51.444;6.484;2023-01-28T02:02:38;66546.22;;;2.67;79.88
3844;BME280;1937;51.444;6.484;2023-01-28T02:05:10;66543.00;;;2.62;80.35
3844;BME280;1937;51.444;6.484;2023-01-28T02:07:41;66497.78;;;2.35;80.66
3844;BME280;1937;51.444;6.484;2023-01-28T02:10:12;66511.84;;;2.45;81.35
3844;BME280;1937;51.444;6.484;2023-01-28T02:12:44;66485.44;;;2.38;81.12
3844;BME280;1937;51.444;6.484;2023-01-28T02:15:17;66483.00;;;2.31;81.45
3844;BME280;1937;51.444;6.484;2023-01-28T02:17:47;66495.47;;;2.33;80.66
3844;BME280;1937;51.444;6.484;2023-01-28T02:20:20;66482.22;;;2.33;80.56
3844;BME280;1937;51.444;6.484;2023-01-28T02:23:06;66520.63;;;2.58;79.90
3844;BME280;1937;51.444;6.484;2023-01-28T02:25:57;66515.06;;;2.51;80.12
3844;BME280;1937;51.444;6.484;2023-01-28T02:28:33;66547.16;;;2.47;80.67
3844;BME280;1937;51.444;6.484;2023-01-28T02:31:11;66538.41;;;2.46;80.33
3844;BME280;1937;51.444;6.484;2023-01-28T02:33:43;66534.13;;;2.45;80.33
3844;BME280;1937;51.444;6.484;2023-01-28T02:36:21;66560.44;;;2.59;80.51
3844;BME280;1937;51.444;6.484;2023-01-28T02:38:54;66530.44;;;2.44;80.33
3844;BME280;1937;51.444;6.484;2023-01-28T02:41:30;66536.31;;;2.65;79.46
3844;BME280;1937;51.444;6.484;2023-01-28T02:44:02;66494.09;;;2.45;79.99
3844;BME280;1937;51.444;6.484;2023-01-28T02:46:38;66534.91;;;2.55;80.19
3844;BME280;1937;51.444;6.484;2023-01-28T02:49:27;66553.16;;;2.73;79.79
3844;BME280;1937;51.444;6.484;2023-01-28T02:52:13;66541.25;;;2.71;78.68
3844;BME280;1937;51.444;6.484;2023-01-28T02:54:50;66557.66;;;2.72;78.86
3844;BME280;1937;51.444;6.484;2023-01-28T02:57:29;66545.72;;;2.93;78.58
3844;BME280;1937;51.444;6.484;2023-01-28T03:00:06;66550.13;;;2.99;78.00
3844;BME280;1937;51.444;6.484;2023-01-28T03:02:41;66562.13;;;3.05;76.93
3844;BME280;1937;51.444;6.484;2023-01-28T03:05:18;66570.31;;;2.95;77.19
3844;BME280;1937;51.444;6.484;2023-01-28T03:07:50;66542.38;;;2.95;76.99
3844;BME280;1937;51.444;6.484;2023-01-28T03:10:21;66542.16;;;2.85;78.08
3844;BME280;1937;51.444;6.484;2023-01-28T03:12:55;66539.16;;;2.78;77.45
3844;BME280;1937;51.444;6.484;2023-01-28T03:15:45;66557.63;;;2.95;77.68
3844;BME280;1937;51.444;6.484;2023-01-28T03:18:34;66550.91;;;3.09;77.45
3844;BME280;1937;51.444;6.484;2023-01-28T03:21:26;66542.13;;;2.97;77.32
3844;BME280;1937;51.444;6.484;2023-01-28T03:24:18;66529.25;;;2.76;77.58
3844;BME280;1937;51.444;6.484;2023-01-28T03:27:11;66500.00;;;2.93;77.33
3844;BME280;1937;51.444;6.484;2023-01-28T03:30:02;66572.66;;;2.85;77.46
3844;BME280;1937;51.444;6.484;2023-01-28T03:32:50;66503.94;;;2.81;77.46
3844;BME280;1937;51.444;6.484;2023-01-28T03:35:38;66509.59;;;2.81;77.87
3844;BME280;1937;51.444;6.484;2023-01-28T03:38:26;66528.66;;;2.76;78.04
3844;BME280;1937;51.444;6.484;2023-01-28T03:41:09;66530.16;;;2.79;78.26
3844;BME280;1937;51.444;6.484;2023-01-28T03:43:38;66483.09;;;2.58;79.28
3844;BME280;1937;51.444;6.484;2023-01-28T03:46:07;66475.91;;;2.65;78.71
3844;BME280;1937;51.444;6.484;2023-01-28T03:48:37;66508.47;;;2.69;77.56
3844;BME280;1937;51.444;6.484;2023-01-28T03:51:06;66535.72;;;2.64;77.98
3844;BME280;1937;51.444;6.484;2023-01-28T03:53:34;66528.09;;;2.75;77.74
3844;BME280;1937;51.444;6.484;2023-01-28T03:56:03;66504.31;;;2.72;77.24
3844;BME280;1937;51.444;6.484;2023-01-28T03:58:32;66494.63;;;2.68;77.62
3844;BME280;1937;51.444;6.484;2023-01-28T04:01:12;66549.81;;;2.74;77.60
3844;BME280;1937;51.444;6.484;2023-01-28T04:03:42;66526.91;;;2.85;77.75
3844;BME280;1937;51.444;6.484;2023-01-28T04:06:10;66502.69;;;2.75;78.00
3844;BME280;1937;51.444;6.484;2023-01-28T04:08:38;66531.78;;;2.76;78.03
3844;BME280;1937;51.444;6.484;2023-01-28T04:11:12;66497.25;;;2.73;77.74
3844;BME280;1937;51.444;6.484;2023-01-28T04:13:43;66518.72;;;2.85;76.79
3844;BME280;1937;51.444;6.484;2023-01-28T04:16:14;66512.72;;;2.82;77.04
3844;BME280;1937;51.444;6.484;2023-01-28T04:18:44;66534.06;;;2.89;77.26
3844;BME280;1937;51.444;6.484;2023-01-28T04:21:13;66496.44;;;2.74;77.39
3844;BME280;1937;51.444;6.484;2023-01-28T04:23:42;66535.59;;;2.82;77.94
3844;BME280;1937;51.444;6.484;2023-01-28T04:26:10;66544.25;;;2.67;79.21
3844;BME280;1937;51.444;6.484;2023-01-28T04:28:38;66534.44;;;2.81;79.17
3844;BME280;1937;51.444;6.484;2023-01-28T04:31:06;66532.44;;;2.93;79.18
3844;BME280;1937;51.444;6.484;2023-01-28T04:33:35;66547.94;;;2.79;79.32
3844;BME280;1937;51.444;6.484;2023-01-28T04:36:06;66559.25;;;2.80;78.97
3844;BME280;1937;51.444;6.484;2023-01-28T04:38:34;66544.59;;;2.81;79.01
3844;BME280;1937;51.444;6.484;2023-01-28T04:41:02;66544.00;;;2.92;78.50
3844;BME280;1937;51.444;6.484;2023-01-28T04:43:31;66494.81;;;2.77;79.19
3844;BME280;1937;51.444;6.484;2023-01-28T04:45:59;66521.97;;;2.79;79.37
3844;BME280;1937;51.444;6.484;2023-01-28T04:48:27;66542.50;;;2.88;79.27
3844;BME280;1937;51.444;6.484;2023-01-28T04:50:57;66523.81;;;2.74;79.32
3844;BME280;1937;51.444;6.484;2023-01-28T04:53:27;66559.84;;;2.81;79.30
3844;BME280;1937;51.444;6.484;2023-01-28T04:55:56;66531.09;;;2.82;77.61
3844;BME280;1937;51.444;6.484;2023-01-28T04:58:25;66481.59;;;2.43;77.26
3844;BME280;1937;51.444;6.484;2023-01-28T05:00:58;66463.75;;;2.28;78.35
3844;BME280;1937;51.444;6.484;2023-01-28T05:03:27;66468.22;;;2.38;79.03
3844;BME280;1937;51.444;6.484;2023-01-28T05:05:55;66479.63;;;2.55;78.77
3844;BME280;1937;51.444;6.484;2023-01-28T05:08:23;66480.94;;;2.38;77.19
3844;BME280;1937;51.444;6.484;2023-01-28T05:10:53;66506.81;;;2.23;76.58
3844;BME280;1937;51.444;6.484;2023-01-28T05:13:21;66421.53;;;2.20;75.89
3844;BME280;1937;51.444;6.484;2023-01-28T05:16:01;66450.50;;;2.16;75.83
3844;BME280;1937;51.444;6.484;2023-01-28T05:18:37;66417.25;;;2.18;76.19
3844;BME280;1937;51.444;6.484;2023-01-28T05:21:07;66444.59;;;2.29;76.11
3844;BME280;1937;51.444;6.484;2023-01-28T05:23:35;66417.84;;;2.19;75.62
3844;BME280;1937;51.444;6.484;2023-01-28T05:26:05;66426.47;;;2.26;75.52
3844;BME280;1937;51.444;6.484;2023-01-28T05:28:34;66448.41;;;2.34;76.16
3844;BME280;1937;51.444;6.484;2023-01-28T05:31:05;66447.81;;;2.34;74.77
3844;BME280;1937;51.444;6.484;2023-01-28T05:33:34;66394.72;;;2.32;75.31
3844;BME280;1937;51.444;6.484;2023-01-28T05:36:02;66422.88;;;2.30;75.52
3844;BME280;1937;51.444;6.484;2023-01-28T05:38:31;66413.88;;;2.31;74.30
3844;BME280;1937;51.444;6.484;2023-01-28T05:41:00;66445.84;;;2.45;74.38
3844;BME280;1937;51.444;6.484;2023-01-28T05:43:29;66457.75;;;2.25;74.39
3844;BME280;1937;51.444;6.484;2023-01-28T05:45:58;66443.66;;;2.37;74.23
3844;BME280;1937;51.444;6.484;2023-01-28T05:48:26;66436.50;;;2.33;74.33
3844;BME280;1937;51.444;6.484;2023-01-28T05:50:54;66453.28;;;2.14;74.79
3844;BME280;1937;51.444;6.484;2023-01-28T05:53:22;66378.97;;;2.20;74.97
3844;BME280;1937;51.444;6.484;2023-01-28T05:55:52;66374.94;;;2.17;74.07
3844;BME280;1937;51.444;6.484;2023-01-28T05:58:21;66396.75;;;2.09;74.49
3844;BME280;1937;51.444;6.484;2023-01-28T06:00:53;66399.38;;;2.14;73.11
3844;BME280;1937;51.444;6.484;2023-01-28T06:03:22;66390.75;;;2.17;74.28
3844;BME280;1937;51.444;6.484;2023-01-28T06:05:50;66427.06;;;2.27;74.80
3844;BME280;1937;51.444;6.484;2023-01-28T06:08:19;66415.41;;;2.23;74.06
3844;BME280;1937;51.444;6.484;2023-01-28T06:10:48;66462.13;;;2.31;74.70
3844;BME280;1937;51.444;6.484;2023-01-28T06:13:16;66420.69;;;2.32;74.47
3844;BME280;1937;51.444;6.484;2023-01-28T06:15:45;66399.25;;;2.20;74.85
3844;BME280;1937;51.444;6.484;2023-01-28T06:18:16;66453.69;;;2.32;74.72
3844;BME280;1937;51.444;6.484;2023-01-28T06:20:44;66423.13;;;2.28;74.62
3844;BME280;1937;51.444;6.484;2023-01-28T06:23:13;66448.88;;;2.19;73.96
3844;BME280;1937;51.444;6.484;2023-01-28T06:25:41;66365.63;;;2.04;74.23
3844;BME280;1937;51.444;6.484;2023-01-28T06:28:09;66414.59;;;2.25;73.37
3844;BME280;1937;51.444;6.484;2023-01-28T06:30:38;66407.22;;;2.23;73.42
3844;BME280;1937;51.444;6.484;2023-01-28T06:33:06;66376.41;;;2.20;74.33
3844;BME280;1937;51.444;6.484;2023-01-28T06:35:36;66383.94;;;2.16;73.31
3844;BME280;1937;51.444;6.484;2023-01-28T06:38:04;66373.00;;;1.95;74.35
3844;BME280;1937;51.444;6.484;2023-01-28T06:40:32;66387.09;;;1.94;74.15
3844;BME280;1937;51.444;6.484;2023-01-28T06:43:01;66353.25;;;2.06;73.58
3844;BME280;1937;51.444;6.484;2023-01-28T06:45:29;66410.47;;;2.17;73.10
3844;BME280;1937;51.444;6.484;2023-01-28T06:47:58;66336.94;;;1.83;73.84
3844;BME280;1937;51.444;6.484;2023-01-28T06:50:27;66361.16;;;1.93;74.43
3844;BME280;1937;51.444;6.484;2023-01-28T06:52:56;66382.16;;;1.87;74.69
3844;BME280;1937;51.444;6.484;2023-01-28T06:55:24;66349.41;;;1.85;73.72
3844;BME280;1937;51.444;6.484;2023-01-28T06:57:53;66368.97;;;2.02;73.58
3844;BME280;1937;51.444;6.484;2023-01-28T07:00:22;66353.84;;;2.07;73.58
3844;BME280;1937;51.444;6.484;2023-01-28T07:02:53;66363.31;;;2.02;74.19
3844;BME280;1937;51.444;6.484;2023-01-28T07:05:22;66387.66;;;2.05;73.53
3844;BME280;1937;51.444;6.484;2023-01-28T07:07:51;66399.53;;;1.96;74.67
3844;BME280;1937;51.444;6.484;2023-01-28T07:10:21;66420.28;;;2.03;73.78
3844;BME280;1937;51.444;6.484;2023-01-28T07:12:49;66396.44;;;1.95;74.04
3844;BME280;1937;51.444;6.484;2023-01-28T07:15:18;66395.59;;;2.08;73.52
3844;BME280;1937;51.444;6.484;2023-01-28T07:17:46;66416.00;;;2.24;74.17
3844;BME280;1937;51.444;6.484;2023-01-28T07:20:15;66379.78;;;2.08;73.96
3844;BME280;1937;51.444;6.484;2023-01-28T07:22:44;66327.59;;;1.93;74.30
3844;BME280;1937;51.444;6.484;2023-01-28T07:25:13;66404.72;;;2.12;73.75
3844;BME280;1937;51.444;6.484;2023-01-28T07:27:49;66412.34;;;2.12;73.88
3844;BME280;1937;51.444;6.484;2023-01-28T07:30:19;66373.44;;;2.13;74.17
3844;BME280;1937;51.444;6.484;2023-01-28T07:32:51;66370.91;;;2.13;73.81
3844;BME280;1937;51.444;6.484;2023-01-28T07:35:20;66380.25;;;2.15;74.16
3844;BME280;1937;51.444;6.484;2023-01-28T07:37:52;66410.25;;;2.08;74.33
3844;BME280;1937;51.444;6.484;2023-01-28T07:40:22;66387.53;;;2.01;73.90
3844;BME280;1937;51.444;6.484;2023-01-28T07:42:52;66385.34;;;2.03;74.21
3844;BME280;1937;51.444;6.484;2023-01-28T07:45:21;66389.91;;;2.19;73.92
3844;BME280;1937;51.444;6.484;2023-01-28T07:47:56;66417.97;;;2.23;73.55
3844;BME280;1937;51.444;6.484;2023-01-28T07:50:25;66399.25;;;2.20;74.06
3844;BME280;1937;51.444;6.484;2023-01-28T07:52:55;66378.28;;;2.15;73.99
3844;BME280;1937;51.444;6.484;2023-01-28T07:55:24;66401.94;;;2.14;74.12
3844;BME280;1937;51.444;6.484;2023-01-28T07:57:55;66390.66;;;2.01;73.14
3844;BME280;1937;51.444;6.484;2023-01-28T08:00:25;66366.97;;;2.14;73.37
3844;BME280;1937;51.444;6.484;2023-01-28T08:02:57;66343.63;;;1.91;75.16
3844;BME280;1937;51.444;6.484;2023-01-28T08:05:28;66428.69;;;2.13;73.85
3844;BME280;1937;51.444;6.484;2023-01-28T08:07:59;66380.97;;;1.97;74.61
3844;BME280;1937;51.444;6.484;2023-01-28T08:10:27;66416.81;;;2.22;73.69
3844;BME280;1937;51.444;6.484;2023-01-28T08:12:58;66394.09;;;2.16;73.69
3844;BME280;1937;51.444;6.484;2023-01-28T08:15:28;66372.44;;;2.05;74.89
3844;BME280;1937;51.444;6.484;2023-01-28T08:17:57;66406.81;;;2.04;74.96
3844;BME280;1937;51.444;6.484;2023-01-28T08:20:27;66399.19;;;2.42;74.62
3844;BME280;1937;51.444;6.484;2023-01-28T08:23:04;66345.22;;;1.99;74.57
3844;BME280;1937;51.444;6.484;2023-01-28T08:25:32;66382.09;;;2.10;74.08
3844;BME280;1937;51.444;6.484;2023-01-28T08:28:01;66364.34;;;2.10;73.52
3844;BME280;1937;51.444;6.484;2023-01-28T08:30:31;66382.94;;;1.97;74.38
3844;BME280;1937;51.444;6.484;2023-01-28T08:33:00;66361.59;;;2.00;74.49
3844;BME280;1937;51.444;6.484;2023-01-28T08:35:29;66414.03;;;2.13;74.33
3844;BME280;1937;51.444;6.484;2023-01-28T08:38:00;66363.88;;;2.02;74.76
3844;BME280;1937;51.444;6.484;2023-01-28T08:40:29;66329.28;;;2.05;73.83
3844;BME280;1937;51.444;6.484;2023-01-28T08:42:58;66366.31;;;2.09;74.62
3844;BME280;1937;51.444;6.484;2023-01-28T08:45:28;66369.75;;;2.12;73.89
3844;BME280;1937;51.444;6.484;2023-01-28T08:47:57;66371.38;;;2.09;72.82
3844;BME280;1937;51.444;6.484;2023-01-28T08:50:28;66337.72;;;2.04;73.48
3844;BME280;1937;51.444;6.484;2023-01-28T08:53:00;66376.81;;;2.00;72.72
3844;BME280;1937;51.444;6.484;2023-01-28T08:55:29;66374.25;;;2.12;73.05
3844;BME280;1937;51.444;6.484;2023-01-28T08:58:00;66366.31;;;2.09;71.60
3844;BME280;1937;51.444;6.484;2023-01-28T09:00:31;66382.94;;;1.97;71.69
3844;BME280;1937;51.444;6.484;2023-01-28T09:02:59;66353.50;;;2.04;71.70
3844;BME280;1937;51.444;6.484;2023-01-28T09:05:27;66350.06;;;2.01;73.38
3844;BME280;1937;51.444;6.484;2023-01-28T09:07:56;66365.66;;;1.93;71.93
3844;BME280;1937;51.444;6.484;2023-01-28T09:10:24;66302.00;;;1.84;73.40
3844;BME280;1937;51.444;6.484;2023-01-28T09:12:52;66333.28;;;1.71;74.06
3844;BME280;1937;51.444;6.484;2023-01-28T09:15:20;66317.94;;;1.78;72.93
3844;BME280;1937;51.444;6.484;2023-01-28T09:17:55;66354.13;;;1.94;72.69
3844;BME280;1937;51.444;6.484;2023-01-28T09:20:23;66357.00;;;1.85;73.64
3844;BME280;1937;51.444;6.484;2023-01-28T09:22:52;66387.09;;;2.05;73.09
3844;BME280;1937;51.444;6.484;2023-01-28T09:25:20;66323.88;;;2.03;73.46
3844;BME280;1937;51.444;6.484;2023-01-28T09:27:49;66383.84;;;2.11;73.92
3844;BME280;1937;51.444;6.484;2023-01-28T09:30:18;66381.31;;;2.00;73.57
3844;BME280;1937;51.444;6.484;2023-01-28T09:32:52;66362.50;;;2.03;73.70
3844;BME280;1937;51.444;6.484;2023-01-28T09:35:22;66316.66;;;1.83;73.48
3844;BME280;1937;51.444;6.484;2023-01-28T09:37:54;66325.34;;;1.69;73.24
3844;BME280;1937;51.444;6.484;2023-01-28T09:40:29;66347.38;;;1.70;73.17
3844;BME280;1937;51.444;6.484;2023-01-28T09:43:04;66312.06;;;1.79;72.93
3844;BME280;1937;51.444;6.484;2023-01-28T09:45:39;66349.72;;;1.99;73.42
3844;BME280;1937;51.444;6.484;2023-01-28T09:48:15;66404.56;;;2.18;72.39
3844;BME280;1937;51.444;6.484;2023-01-28T09:50:46;66432.91;;;2.36;71.55
3844;BME280;1937;51.444;6.484;2023-01-28T09:53:18;66372.38;;;2.28;71.66
3844;BME280;1937;51.444;6.484;2023-01-28T09:55:50;66401.81;;;2.09;73.23
3844;BME280;1937;51.444;6.484;2023-01-28T09:58:22;66329.88;;;1.95;72.91
3844;BME280;1937;51.444;6.484;2023-01-28T10:00:56;66334.13;;;2.08;70.96
3844;BME280;1937;51.444;6.484;2023-01-28T10:03:35;66357.44;;;2.03;72.10
3844;BME280;1937;51.444;6.484;2023-01-28T10:06:16;66355.84;;;1.95;72.29
3844;BME280;1937;51.444;6.484;2023-01-28T10:09:01;66367.34;;;2.05;71.63
3844;BME280;1937;51.444;6.484;2023-01-28T10:11:42;66333.34;;;1.98;72.32
3844;BME280;1937;51.444;6.484;2023-01-28T10:14:20;66365.41;;;2.06;71.77
3844;BME280;1937;51.444;6.484;2023-01-28T10:16:55;66368.63;;;2.00;72.38
3844;BME280;1937;51.444;6.484;2023-01-28T10:19:30;66358.03;;;1.93;72.30
3844;BME280;1937;51.444;6.484;2023-01-28T10:22:03;66331.97;;;1.99;72.08
3844;BME280;1937;51.444;6.484;2023-01-28T10:24:37;66387.00;;;2.38;71.50
3844;BME280;1937;51.444;6.484;2023-01-28T10:27:20;66392.69;;;2.55;71.08
3844;BME280;1937;51.444;6.484;2023-01-28T10:29:50;66373.09;;;2.48;70.23
3844;BME280;1937;51.444;6.484;2023-01-28T10:32:29;66353.78;;;2.29;70.50
3844;BME280;1937;51.444;6.484;2023-01-28T10:34:57;66359.91;;;2.26;71.00
3844;BME280;1937;51.444;6.484;2023-01-28T10:37:26;66393.31;;;2.44;72.61
3844;BME280;1937;51.444;6.484;2023-01-28T10:39:56;66410.03;;;2.47;71.96
3844;BME280;1937;51.444;6.484;2023-01-28T10:42:26;66382.38;;;2.34;72.20
3844;BME280;1937;51.444;6.484;2023-01-28T10:44:56;66362.94;;;2.22;72.29
3844;BME280;1937;51.444;6.484;2023-01-28T10:47:29;66313.69;;;1.65;73.64
3844;BME280;1937;51.444;6.484;2023-01-28T10:49:58;66344.56;;;1.83;73.52
3844;BME280;1937;51.444;6.484;2023-01-28T10:52:26;66299.91;;;1.64;72.47
3844;BME280;1937;51.444;6.484;2023-01-28T10:55:00;66306.91;;;1.75;72.35
3844;BME280;1937;51.444;6.484;2023-01-28T10:57:27;66359.19;;;1.94;72.67
3844;BME280;1937;51.444;6.484;2023-01-28T10:59:53;66346.84;;;1.96;73.08
3844;BME280;1937;51.444;6.484;2023-01-28T11:02:31;66316.53;;;1.90;73.13
3844;BME280;1937;51.444;6.484;2023-01-28T11:05:04;66337.44;;;1.79;72.84
3844;BME280;1937;51.444;6.484;2023-01-28T11:07:31;66312.63;;;1.80;73.21
3844;BME280;1937;51.444;6.484;2023-01-28T11:09:58;66303.50;;;1.87;72.41
3844;BME280;1937;51.444;6.484;2023-01-28T11:12:26;66380.06;;;1.94;73.08
3844;BME280;1937;51.444;6.484;2023-01-28T11:14:54;66306.84;;;1.86;72.52
3844;BME280;1937;51.444;6.484;2023-01-28T11:17:23;66303.72;;;1.47;74.08
3844;BME280;1937;51.444;6.484;2023-01-28T11:19:52;66303.44;;;1.72;72.63
3844;BME280;1937;51.444;6.484;2023-01-28T11:22:25;66346.06;;;1.87;73.03
3844;BME280;1937;51.444;6.484;2023-01-28T11:24:56;66364.94;;;1.99;72.28
3844;BME280;1937;51.444;6.484;2023-01-28T11:27:26;66346.34;;;2.00;71.88
3844;BME280;1937;51.444;6.484;2023-01-28T11:29:56;66380.28;;;2.03;71.94
3844;BME280;1937;51.444;6.484;2023-01-28T11:32:25;66292.72;;;1.71;71.54
3844;BME280;1937;51.444;6.484;2023-01-28T11:34:53;66307.72;;;1.62;73.48
3844;BME280;1937;51.444;6.484;2023-01-28T11:37:24;66317.81;;;1.84;72.27
3844;BME280;1937;51.444;6.484;2023-01-28T11:40:00;66331.75;;;1.90;71.53
3844;BME280;1937;51.444;6.484;2023-01-28T11:42:27;66334.88;;;1.79;71.64
3844;BME280;1937;51.444;6.484;2023-01-28T11:44:53;66360.06;;;2.08;71.39
3844;BME280;1937;51.444;6.484;2023-01-28T11:47:28;66334.13;;;2.08;70.52
3844;BME280;1937;51.444;6.484;2023-01-28T11:50:10;66330.78;;;2.09;70.90
3844;BME280;1937;51.444;6.484;2023-01-28T11:52:51;66336.38;;;2.21;70.94
3844;BME280;1937;51.444;6.484;2023-01-28T11:55:32;66371.53;;;2.40;70.15
3844;BME280;1937;51.444;6.484;2023-01-28T11:58:10;66345.03;;;2.28;70.29
3844;BME280;1937;51.444;6.484;2023-01-28T12:00:44;66353.81;;;2.18;70.97
3844;BME280;1937;51.444;6.484;2023-01-28T12:03:27;66363.25;;;2.24;70.74
3844;BME280;1937;51.444;6.484;2023-01-28T12:06:10;66399.03;;;2.60;69.01
3844;BME280;1937;51.444;6.484;2023-01-28T12:08:46;66409.31;;;2.54;69.82
3844;BME280;1937;51.444;6.484;2023-01-28T12:11:24;66418.13;;;2.81;68.85
3844;BME280;1937;51.444;6.484;2023-01-28T12:14:19;66463.22;;;3.03;68.76
3844;BME280;1937;51.444;6.484;2023-01-28T12:17:02;66447.66;;;3.27;67.87
3844;BME280;1937;51.444;6.484;2023-01-28T12:19:45;66433.19;;;2.99;67.79
3844;BME280;1937;51.444;6.484;2023-01-28T12:25:30;66414.13;;;2.67;69.81
3844;BME280;1937;51.444;6.484;2023-01-28T12:28:07;66392.91;;;2.91;69.49
3844;BME280;1937;51.444;6.484;2023-01-28T12:30:52;66415.16;;;2.74;68.96
3844;BME280;1937;51.444;6.484;2023-01-28T12:33:37;66401.56;;;2.60;67.50
3844;BME280;1937;51.444;6.484;2023-01-28T12:36:18;66362.13;;;2.50;68.50
3844;BME280;1937;51.444;6.484;2023-01-28T12:38:57;66369.22;;;2.65;67.80
3844;BME280;1937;51.444;6.484;2023-01-28T12:41:32;66458.44;;;3.17;67.78
3844;BME280;1937;51.444;6.484;2023-01-28T12:44:02;66510.38;;;3.40;66.99
3844;BME280;1937;51.444;6.484;2023-01-28T12:46:41;66412.28;;;2.99;67.89
3844;BME280;1937;51.444;6.484;2023-01-28T12:49:14;66399.50;;;2.94;68.51
3844;BME280;1937;51.444;6.484;2023-01-28T12:51:51;66443.38;;;3.26;67.05
3844;BME280;1937;51.444;6.484;2023-01-28T12:54:24;66391.22;;;2.78;67.67
3844;BME280;1937;51.444;6.484;2023-01-28T12:56:55;66360.88;;;2.71;67.69
3844;BME280;1937;51.444;6.484;2023-01-28T12:59:26;66413.56;;;3.20;67.40
3844;BME280;1937;51.444;6.484;2023-01-28T13:02:03;66449.22;;;3.09;67.03
3844;BME280;1937;51.444;6.484;2023-01-28T13:04:36;66381.66;;;2.78;67.76
3844;BME280;1937;51.444;6.484;2023-01-28T13:07:09;66455.78;;;2.85;67.25
3844;BME280;1937;51.444;6.484;2023-01-28T13:09:41;66415.28;;;3.06;67.54
3844;BME280;1937;51.444;6.484;2023-01-28T13:12:12;66405.88;;;2.88;67.55
3844;BME280;1937;51.444;6.484;2023-01-28T13:14:39;66412.00;;;2.85;67.33
3844;BME280;1937;51.444;6.484;2023-01-28T13:17:10;66397.13;;;2.76;66.92
3844;BME280;1937;51.444;6.484;2023-01-28T13:19:38;66386.69;;;2.89;66.73
3844;BME280;1937;51.444;6.484;2023-01-28T13:22:25;66394.50;;;2.72;67.16
3844;BME280;1937;51.444;6.484;2023-01-28T13:24:52;66432.91;;;3.12;66.80
3844;BME280;1937;51.444;6.484;2023-01-28T13:27:23;66426.69;;;3.11;65.96
3844;BME280;1937;51.444;6.484;2023-01-28T13:30:01;66392.09;;;2.92;66.48
3844;BME280;1937;51.444;6.484;2023-01-28T13:32:31;66452.00;;;3.07;66.70
3844;BME280;1937;51.444;6.484;2023-01-28T13:35:00;66429.31;;;3.16;66.34
3844;BME280;1937;51.444;6.484;2023-01-28T13:37:30;66452.09;;;3.38;64.67
3844;BME280;1937;51.444;6.484;2023-01-28T13:40:02;66495.72;;;3.56;65.70
3844;BME280;1937;51.444;6.484;2023-01-28T13:42:31;66467.22;;;3.45;65.16
3844;BME280;1937;51.444;6.484;2023-01-28T13:45:21;66468.69;;;3.21;66.85
3844;BME280;1937;51.444;6.484;2023-01-28T13:47:51;66472.97;;;3.50;66.61
3844;BME280;1937;51.444;6.484;2023-01-28T13:50:20;66415.59;;;3.35;65.06
3844;BME280;1937;51.444;6.484;2023-01-28T13:52:52;66430.09;;;2.99;65.75
3844;BME280;1937;51.444;6.484;2023-01-28T13:55:23;66442.78;;;3.25;65.53
3844;BME280;1937;51.444;6.484;2023-01-28T13:58:14;66414.03;;;3.00;66.79
3844;BME280;1937;51.444;6.484;2023-01-28T14:01:00;66424.97;;;3.10;67.55
3844;BME280;1937;51.444;6.484;2023-01-28T14:04:10;66397.84;;;2.97;67.51